createdAt,value
2023-03-17T14:17:29.443Z,101194.22
2023-03-17T14:22:32.452Z,101188.94
2023-03-17T14:27:36.713Z,101203.31
2023-03-17T14:32:39.506Z,101209.91
2023-03-17T14:37:42.048Z,101223.34
2023-03-17T14:42:44.589Z,101227.03
2023-03-17T14:47:47.287Z,101240.38
2023-03-17T14:52:50.641Z,101236.31
2023-03-17T14:57:53.369Z,101234.81
2023-03-17T15:03:20.885Z,101242.25
2023-03-17T15:08:36.447Z,101249.13
2023-03-17T15:13:40.310Z,101249.97
2023-03-17T15:18:43.188Z,101253.38
2023-03-17T15:23:48.112Z,101251.19
2023-03-17T15:28:50.633Z,101259.94
2023-03-17T15:33:53.104Z,101260.63
2023-03-17T15:38:55.848Z,101268.19
2023-03-17T15:43:58.321Z,101271.56
2023-03-17T15:49:01.061Z,101277.53
2023-03-17T15:59:23.712Z,101277.75
2023-03-17T16:04:26.229Z,101286.38
2023-03-17T16:09:28.848Z,101284.16
2023-03-17T16:14:31.420Z,101294.03
2023-03-17T16:19:34.168Z,101283.81
2023-03-17T16:24:38.565Z,101292.81
2023-03-17T16:29:40.981Z,101292.88
2023-03-17T16:34:43.700Z,101295.34
2023-03-17T16:39:46.283Z,101300.94
2023-03-17T16:44:48.887Z,101293.94
2023-03-17T16:49:51.493Z,101293.66
2023-03-17T16:54:54.050Z,101303.63
2023-03-17T16:59:58.059Z,101298.69
2023-03-17T17:05:02.407Z,101301.97
2023-03-17T17:10:05.993Z,101299.91
2023-03-17T17:15:10.551Z,101275.50
2023-03-17T17:20:17.079Z,101304.13
2023-03-17T17:25:19.676Z,101311.78
2023-03-17T17:30:28.530Z,101311.56
2023-03-17T17:35:33.197Z,101305.16
2023-03-17T17:40:37.634Z,101312.78
2023-03-17T17:45:40.283Z,101310.31
2023-03-17T17:50:43.562Z,101304.78
2023-03-17T17:55:48.344Z,101307.06
2023-03-17T18:00:52.912Z,101302.09
2023-03-17T18:05:57.923Z,101307.41
2023-03-17T18:11:00.510Z,101310.06
2023-03-17T18:16:04.211Z,101306.31
2023-03-17T18:21:06.848Z,101274.47
2023-03-17T18:26:09.709Z,101298.28
2023-03-17T18:31:19.166Z,101310.34
2023-03-17T18:36:22.588Z,101321.91
2023-03-17T18:41:26.834Z,101324.84
2023-03-17T18:46:29.394Z,101312.75
2023-03-17T18:51:32.465Z,101317.50
2023-03-17T18:56:35.013Z,101315.44
2023-03-17T19:01:37.884Z,101318.75
2023-03-17T19:06:42.787Z,101315.00
2023-03-17T19:11:45.324Z,101312.53
2023-03-17T19:16:49.548Z,101316.66
2023-03-17T19:21:52.108Z,101314.38
2023-03-17T19:26:54.766Z,101318.53
2023-03-17T19:31:57.288Z,101313.75
2023-03-17T19:37:02.413Z,101322.38
2023-03-17T19:42:06.088Z,101312.69
2023-03-17T19:47:08.733Z,101319.84
2023-03-17T19:52:11.238Z,101320.66
2023-03-17T19:57:15.140Z,101307.25
2023-03-17T20:02:17.804Z,101317.09
2023-03-17T20:07:20.525Z,101295.50
2023-03-17T20:12:23.337Z,101298.81
2023-03-17T20:22:46.934Z,101300.66
2023-03-17T20:28:08.399Z,101301.31
2023-03-17T20:33:15.523Z,101309.13
2023-03-17T20:38:18.023Z,101309.13
2023-03-17T20:43:21.258Z,101304.59
2023-03-17T20:48:23.705Z,101293.53
2023-03-17T20:53:27.143Z,101306.34
2023-03-17T20:58:30.706Z,101315.06
2023-03-17T21:03:33.064Z,101318.81
2023-03-17T21:08:36.933Z,101321.38
2023-03-17T21:13:40.305Z,101315.63
2023-03-17T21:18:42.935Z,101322.63
2023-03-17T21:23:46.036Z,101312.78
2023-03-17T21:28:48.946Z,101321.81
2023-03-17T21:33:52.060Z,101309.88
2023-03-17T21:39:13.367Z,101293.25
2023-03-17T21:44:16.245Z,101344.06
2023-03-17T21:49:19.085Z,101355.59
2023-03-17T21:54:26.814Z,101364.88
2023-03-17T21:59:32.120Z,101345.69
2023-03-17T22:04:34.794Z,101345.50
2023-03-17T22:09:40.710Z,101351.47
2023-03-17T22:14:46.063Z,101357.00
2023-03-17T22:19:48.989Z,101356.78
2023-03-17T22:24:51.620Z,101335.84
2023-03-17T22:29:54.722Z,101307.88
2023-03-17T22:34:57.245Z,101296.56
2023-03-17T22:40:05.382Z,101286.50
2023-03-17T22:45:08.767Z,101302.31
2023-03-17T22:50:12.072Z,101314.66
2023-03-17T22:55:15.142Z,101317.28
2023-03-17T23:00:18.224Z,101347.06
2023-03-17T23:05:20.736Z,101344.19
2023-03-17T23:10:26.949Z,101332.91
2023-03-17T23:15:29.549Z,101346.47
2023-03-17T23:20:33.489Z,101339.88
2023-03-17T23:25:36.841Z,101334.13
2023-03-17T23:30:40.304Z,101339.72
2023-03-17T23:35:42.842Z,101337.25
2023-03-17T23:40:46.956Z,101350.56
2023-03-17T23:45:53.311Z,101319.31
2023-03-17T23:50:55.944Z,101320.72
2023-03-17T23:55:59.498Z,101323.22
